createdAt,value
2022-08-19T00:00:00.063Z,14.63
2022-08-19T00:02:27.230Z,16.17
2022-08-19T00:05:04.870Z,16.27
2022-08-19T00:07:31.722Z,18.00
2022-08-19T00:10:01.622Z,16.80
2022-08-19T00:12:31.875Z,16.10
2022-08-19T00:14:58.637Z,18.63
2022-08-19T00:17:28.644Z,16.77
2022-08-19T00:19:58.930Z,15.43
2022-08-19T00:22:29.610Z,16.77
2022-08-19T00:24:59.733Z,15.37
2022-08-19T00:27:29.114Z,16.17
2022-08-19T00:30:00.225Z,16.23
2022-08-19T00:32:30.622Z,18.00
2022-08-19T00:35:00.045Z,17.17
2022-08-19T00:37:28.014Z,17.33
2022-08-19T00:39:56.878Z,18.43
2022-08-19T00:42:26.264Z,18.60
2022-08-19T00:44:53.253Z,19.13
2022-08-19T00:47:20.835Z,18.90
2022-08-19T00:49:58.221Z,18.47
2022-08-19T00:52:30.432Z,17.77
2022-08-19T00:55:02.477Z,22.87
2022-08-19T00:57:39.967Z,19.80
2022-08-19T01:00:14.925Z,21.43
2022-08-19T01:02:43.144Z,21.23
2022-08-19T01:05:16.701Z,22.57
2022-08-19T01:07:48.286Z,21.13
2022-08-19T01:10:22.443Z,19.67
2022-08-19T01:12:53.686Z,20.27
2022-08-19T01:15:25.638Z,22.33
2022-08-19T01:17:54.265Z,21.63
2022-08-19T01:20:24.012Z,20.10
2022-08-19T01:22:54.923Z,17.83
2022-08-19T01:25:27.494Z,17.03
2022-08-19T01:27:56.864Z,17.87
2022-08-19T01:30:34.832Z,19.87
2022-08-19T01:33:07.185Z,17.27
2022-08-19T01:35:35.859Z,18.70
2022-08-19T01:38:11.166Z,17.03
2022-08-19T01:40:40.995Z,18.33
2022-08-19T01:43:08.075Z,34.30
2022-08-19T01:45:41.582Z,21.27
2022-08-19T01:48:09.905Z,17.67
2022-08-19T01:50:36.975Z,16.83
2022-08-19T01:53:07.865Z,16.67
2022-08-19T01:55:40.752Z,17.97
2022-08-19T01:58:23.850Z,16.37
2022-08-19T02:00:50.928Z,17.13
2022-08-19T02:03:18.350Z,15.50
2022-08-19T02:05:48.763Z,15.67
2022-08-19T02:08:15.609Z,14.70
2022-08-19T02:10:44.528Z,15.70
2022-08-19T02:13:14.796Z,15.53
2022-08-19T02:15:42.181Z,15.70
2022-08-19T02:18:09.598Z,14.93
2022-08-19T02:20:37.415Z,14.33
2022-08-19T02:23:04.283Z,15.73
2022-08-19T02:25:34.589Z,15.10
2022-08-19T02:28:01.744Z,14.70
2022-08-19T02:30:39.633Z,15.53
2022-08-19T02:33:06.555Z,15.60
2022-08-19T02:35:33.626Z,15.57
2022-08-19T02:38:20.013Z,16.80
2022-08-19T02:40:52.891Z,15.93
2022-08-19T02:43:36.038Z,16.50
2022-08-19T02:46:25.580Z,15.60
2022-08-19T02:48:55.236Z,15.73
2022-08-19T02:51:27.811Z,15.97
2022-08-19T02:53:57.869Z,16.40
2022-08-19T02:56:28.424Z,14.80
2022-08-19T02:58:56.614Z,14.50
2022-08-19T03:01:32.362Z,18.40
2022-08-19T03:04:10.552Z,15.97
2022-08-19T03:06:39.681Z,16.83
2022-08-19T03:09:06.757Z,18.27
2022-08-19T03:11:34.348Z,17.73
2022-08-19T03:14:02.673Z,22.10
2022-08-19T03:16:40.725Z,19.27
2022-08-19T03:19:07.833Z,19.57
2022-08-19T03:21:35.896Z,21.00
2022-08-19T03:24:07.970Z,21.03
2022-08-19T03:26:43.831Z,23.73
2022-08-19T03:29:30.190Z,20.77
2022-08-19T03:32:04.603Z,20.30
2022-08-19T03:34:34.373Z,25.00
2022-08-19T03:37:07.311Z,21.77
2022-08-19T03:39:39.783Z,23.20
2022-08-19T03:42:45.349Z,23.20
2022-08-19T03:44:56.187Z,23.77
2022-08-19T03:47:23.292Z,23.83
2022-08-19T03:49:50.143Z,21.63
2022-08-19T03:52:16.966Z,21.57
2022-08-19T03:54:50.236Z,21.73
2022-08-19T03:57:17.091Z,21.70
2022-08-19T03:59:44.532Z,20.00
2022-08-19T04:02:12.975Z,22.80
2022-08-19T04:04:41.573Z,22.07
2022-08-19T04:07:14.584Z,22.07
2022-08-19T04:09:45.109Z,20.10
2022-08-19T04:12:16.265Z,20.23
2022-08-19T04:14:43.091Z,20.53
2022-08-19T04:17:19.236Z,19.43
2022-08-19T04:19:46.231Z,21.50
2022-08-19T04:22:13.115Z,23.17
2022-08-19T04:24:42.784Z,19.47
2022-08-19T04:27:12.950Z,21.33
2022-08-19T04:29:40.594Z,21.40
2022-08-19T04:32:10.210Z,22.83
2022-08-19T04:35:01.478Z,21.33
2022-08-19T04:37:25.850Z,20.10
2022-08-19T04:40:13.987Z,18.73
2022-08-19T04:42:47.435Z,17.07
2022-08-19T04:45:15.483Z,16.53
2022-08-19T04:47:49.148Z,17.27
2022-08-19T04:50:26.615Z,17.27
2022-08-19T04:52:54.447Z,16.10
2022-08-19T04:55:21.478Z,14.90
2022-08-19T04:57:48.576Z,14.97
2022-08-19T05:00:15.583Z,16.20
2022-08-19T05:02:45.466Z,15.80
2022-08-19T05:05:13.530Z,14.00
2022-08-19T05:07:42.096Z,13.33
2022-08-19T05:10:09.975Z,13.20
2022-08-19T05:12:40.456Z,13.50
2022-08-19T05:15:11.876Z,13.50
2022-08-19T05:17:39.412Z,10.70
2022-08-19T05:20:27.684Z,12.17
2022-08-19T05:22:57.484Z,13.63
2022-08-19T05:25:26.618Z,14.53
2022-08-19T05:27:53.712Z,13.13
2022-08-19T05:30:37.576Z,12.77
2022-08-19T05:33:13.703Z,13.80
2022-08-19T05:35:47.761Z,11.70
2022-08-19T05:38:14.842Z,12.70
2022-08-19T05:40:41.703Z,13.40
2022-08-19T05:43:11.989Z,11.30
2022-08-19T05:45:40.922Z,14.77
2022-08-19T05:48:07.743Z,15.40
2022-08-19T05:50:36.947Z,13.30
2022-08-19T05:53:03.946Z,15.43
2022-08-19T05:55:34.121Z,15.20
2022-08-19T05:58:02.767Z,14.67
2022-08-19T06:00:31.622Z,17.20
2022-08-19T06:03:00.934Z,15.37
2022-08-19T06:05:49.740Z,14.77
2022-08-19T06:08:19.733Z,14.63
2022-08-19T06:10:53.828Z,15.23
2022-08-19T06:13:24.819Z,17.23
2022-08-19T06:15:51.837Z,17.03
2022-08-19T06:18:18.710Z,15.07
2022-08-19T06:20:55.882Z,16.50
2022-08-19T06:23:24.195Z,13.10
2022-08-19T06:25:51.594Z,15.50
2022-08-19T06:28:18.861Z,14.13
2022-08-19T06:30:45.992Z,14.27
2022-08-19T06:33:16.051Z,12.20
2022-08-19T06:38:10.775Z,12.80
2022-08-19T06:40:40.894Z,13.97
2022-08-19T06:43:08.599Z,15.80
2022-08-19T06:45:42.189Z,12.70
2022-08-19T06:48:12.035Z,13.00
2022-08-19T06:50:40.939Z,12.30
2022-08-19T06:53:08.259Z,12.53
2022-08-19T06:55:35.027Z,15.10
2022-08-19T06:58:06.431Z,13.80
2022-08-19T07:00:34.858Z,11.60
2022-08-19T07:03:04.510Z,10.67
2022-08-19T07:05:40.399Z,9.77
2022-08-19T07:08:15.091Z,9.70
2022-08-19T07:10:46.848Z,10.73
2022-08-19T07:13:14.107Z,14.50
2022-08-19T07:15:40.946Z,12.47
2022-08-19T07:18:07.880Z,9.10
2022-08-19T07:20:40.224Z,9.33
2022-08-19T07:23:09.010Z,17.80
2022-08-19T07:25:37.776Z,13.83
2022-08-19T07:28:05.421Z,15.37
2022-08-19T07:30:35.524Z,12.97
2022-08-19T07:33:03.536Z,11.10
2022-08-19T07:35:35.694Z,15.03
2022-08-19T07:38:04.119Z,8.17
2022-08-19T07:40:33.733Z,12.50
2022-08-19T07:43:00.673Z,6.50
2022-08-19T07:45:28.363Z,7.03
2022-08-19T07:47:56.135Z,8.43
2022-08-19T07:50:30.548Z,7.07
2022-08-19T07:52:58.102Z,6.87
2022-08-19T07:55:41.526Z,6.33
2022-08-19T07:58:15.765Z,7.47
2022-08-19T08:00:44.383Z,7.30
2022-08-19T08:03:12.547Z,6.53
2022-08-19T08:05:59.009Z,6.53
2022-08-19T08:08:48.087Z,5.90
2022-08-19T08:11:21.436Z,7.93
2022-08-19T08:14:00.892Z,7.47
2022-08-19T08:16:32.521Z,6.47
2022-08-19T08:18:59.664Z,6.47
2022-08-19T08:21:28.786Z,7.93
2022-08-19T08:26:32.078Z,9.23
2022-08-19T08:29:02.469Z,9.90
2022-08-19T08:31:41.405Z,9.67
2022-08-19T08:34:09.600Z,10.37
2022-08-19T08:36:43.077Z,10.80
2022-08-19T08:39:10.611Z,8.77
2022-08-19T08:41:55.601Z,9.33
2022-08-19T08:44:39.584Z,8.77
2022-08-19T08:47:19.205Z,9.03
2022-08-19T08:50:05.304Z,16.03
2022-08-19T08:52:37.099Z,10.03
2022-08-19T08:55:13.657Z,14.63
2022-08-19T08:57:50.071Z,10.87
2022-08-19T09:00:20.878Z,9.70
2022-08-19T09:02:55.374Z,8.40
2022-08-19T09:05:25.789Z,9.50
2022-08-19T09:08:17.057Z,9.53
2022-08-19T09:10:55.931Z,11.13
2022-08-19T09:13:48.505Z,10.47
2022-08-19T09:16:28.001Z,10.87
2022-08-19T09:18:59.919Z,10.83
2022-08-19T09:21:34.361Z,10.53
2022-08-19T09:24:05.572Z,11.23
2022-08-19T09:26:47.260Z,11.90
2022-08-19T09:29:20.007Z,14.27
2022-08-19T09:31:51.005Z,14.20
2022-08-19T09:34:22.058Z,19.73
2022-08-19T09:36:56.739Z,19.17
2022-08-19T09:39:24.138Z,18.60
2022-08-19T09:41:51.045Z,22.63
2022-08-19T09:44:18.866Z,20.57
2022-08-19T09:46:48.150Z,22.53
2022-08-19T09:49:18.331Z,22.13
2022-08-19T09:51:50.383Z,20.40
2022-08-19T09:54:23.585Z,19.70
2022-08-19T09:56:52.395Z,20.27
2022-08-19T09:59:19.651Z,20.13
2022-08-19T10:01:49.017Z,22.43
2022-08-19T10:04:20.445Z,23.10
2022-08-19T10:06:53.555Z,22.87
2022-08-19T10:09:26.205Z,21.70
2022-08-19T10:12:02.533Z,22.23
2022-08-19T10:14:30.052Z,22.83
2022-08-19T10:16:57.637Z,22.80
2022-08-19T10:19:26.663Z,21.47
2022-08-19T10:21:55.667Z,23.40
2022-08-19T10:24:31.832Z,24.17
2022-08-19T10:27:07.173Z,24.93
2022-08-19T10:29:35.751Z,24.57
2022-08-19T10:32:05.558Z,26.10
2022-08-19T10:34:48.961Z,28.80
2022-08-19T10:37:29.036Z,26.63
2022-08-19T10:39:59.007Z,27.03
2022-08-19T10:42:28.515Z,23.27
2022-08-19T10:44:55.341Z,22.17
2022-08-19T10:47:25.759Z,21.77
2022-08-19T10:50:13.263Z,25.40
2022-08-19T10:52:48.955Z,25.90
2022-08-19T10:55:37.373Z,22.03
2022-08-19T10:58:04.742Z,22.93
2022-08-19T11:00:34.826Z,25.50
2022-08-19T11:03:01.797Z,21.63
2022-08-19T11:05:31.426Z,19.13
2022-08-19T11:08:21.232Z,19.83
2022-08-19T11:10:50.991Z,18.80
2022-08-19T11:13:17.906Z,20.60
2022-08-19T11:15:47.220Z,18.30
2022-08-19T11:18:14.453Z,19.37
2022-08-19T11:20:42.481Z,20.37
2022-08-19T11:23:15.455Z,17.87
2022-08-19T11:25:42.932Z,17.40
2022-08-19T11:28:09.748Z,15.77
2022-08-19T11:30:38.894Z,17.77
2022-08-19T11:33:08.807Z,17.93
2022-08-19T11:35:42.903Z,17.23
2022-08-19T11:38:10.080Z,16.67
2022-08-19T11:40:37.164Z,15.87
2022-08-19T11:43:04.481Z,15.37
2022-08-19T11:45:31.763Z,15.83
2022-08-19T11:47:59.085Z,15.53
2022-08-19T11:50:25.979Z,14.33
2022-08-19T11:52:57.635Z,13.63
2022-08-19T11:55:24.892Z,13.67
2022-08-19T11:57:55.013Z,13.47
2022-08-19T12:00:22.607Z,15.43
2022-08-19T12:02:49.569Z,15.47
2022-08-19T12:05:16.545Z,16.27
2022-08-19T12:07:44.690Z,17.70
2022-08-19T12:10:12.095Z,17.57
2022-08-19T12:12:43.618Z,18.40
2022-08-19T12:15:12.213Z,20.57
2022-08-19T12:17:45.268Z,19.13
2022-08-19T12:20:15.017Z,17.10
2022-08-19T12:22:45.171Z,17.60
2022-08-19T12:25:13.228Z,20.10
2022-08-19T12:27:42.728Z,18.43
2022-08-19T12:30:13.865Z,18.53
2022-08-19T12:32:40.871Z,19.07
2022-08-19T12:35:10.130Z,16.13
2022-08-19T12:37:39.541Z,16.53
2022-08-19T12:40:06.997Z,16.80
2022-08-19T12:42:36.531Z,15.53
2022-08-19T12:45:03.433Z,16.57
2022-08-19T12:47:33.403Z,17.10
2022-08-19T12:50:08.024Z,15.20
2022-08-19T12:52:36.283Z,10.87
2022-08-19T12:55:03.143Z,18.83
2022-08-19T12:57:34.160Z,11.07
2022-08-19T13:00:14.571Z,7.17
2022-08-19T13:02:45.199Z,8.80
2022-08-19T13:05:15.394Z,8.47
2022-08-19T13:07:49.667Z,6.70
2022-08-19T13:10:21.254Z,3.77
2022-08-19T13:12:50.010Z,5.33
2022-08-19T13:15:23.961Z,5.47
2022-08-19T13:17:53.358Z,6.03
2022-08-19T13:20:22.047Z,7.87
2022-08-19T13:22:49.584Z,7.30
2022-08-19T13:25:19.553Z,6.83
2022-08-19T13:27:51.816Z,9.17
2022-08-19T13:30:40.085Z,10.03
2022-08-19T13:33:16.993Z,9.33
2022-08-19T13:35:50.676Z,8.33
2022-08-19T13:38:21.474Z,8.97
2022-08-19T13:40:51.334Z,7.70
2022-08-19T13:43:23.336Z,10.37
2022-08-19T13:45:53.660Z,9.10
2022-08-19T13:48:20.508Z,8.70
2022-08-19T13:50:50.885Z,8.67
2022-08-19T13:53:19.185Z,10.73
2022-08-19T13:55:51.957Z,9.93
2022-08-19T13:58:21.384Z,8.43
2022-08-19T14:00:51.197Z,8.33
2022-08-19T14:03:18.452Z,8.37
2022-08-19T14:05:45.367Z,11.70
2022-08-19T14:08:13.345Z,9.00
2022-08-19T14:10:40.688Z,9.00
2022-08-19T14:13:07.439Z,13.13
2022-08-19T14:15:38.514Z,11.10
2022-08-19T14:18:12.943Z,11.10
2022-08-19T14:20:39.707Z,10.97
2022-08-19T14:23:15.831Z,10.50
2022-08-19T14:25:42.758Z,10.67
2022-08-19T14:28:09.741Z,8.73
2022-08-19T14:30:41.763Z,9.17
2022-08-19T14:33:09.869Z,8.67
2022-08-19T14:35:37.376Z,10.33
2022-08-19T14:38:16.834Z,9.93
2022-08-19T14:40:43.955Z,9.17
2022-08-19T14:43:10.731Z,9.77
2022-08-19T14:45:40.717Z,9.03
2022-08-19T14:48:12.488Z,9.77
2022-08-19T14:50:48.992Z,8.00
2022-08-19T14:53:17.273Z,9.00
2022-08-19T14:55:45.705Z,8.50
2022-08-19T14:58:28.312Z,9.90
2022-08-19T15:00:57.103Z,9.43
2022-08-19T15:03:24.404Z,11.50
2022-08-19T15:05:51.289Z,10.90
2022-08-19T15:08:18.187Z,12.57
2022-08-19T15:10:45.097Z,11.10
2022-08-19T15:13:11.930Z,12.23
2022-08-19T15:15:40.503Z,13.27
2022-08-19T15:18:08.102Z,13.97
2022-08-19T15:20:34.901Z,11.67
2022-08-19T15:23:01.732Z,11.63
2022-08-19T15:25:29.860Z,12.27
2022-08-19T15:27:57.145Z,13.10
2022-08-19T15:30:26.236Z,13.10
2022-08-19T15:32:58.753Z,15.47
2022-08-19T15:35:26.804Z,14.73
2022-08-19T15:37:55.019Z,14.93
2022-08-19T15:40:23.574Z,16.90
2022-08-19T15:42:51.574Z,14.60
2022-08-19T15:45:20.276Z,15.80
2022-08-19T15:47:47.763Z,15.83
2022-08-19T15:50:19.375Z,16.00
2022-08-19T15:52:56.200Z,15.97
2022-08-19T15:55:33.736Z,16.93
2022-08-19T15:58:28.763Z,16.63
2022-08-19T16:01:17.743Z,17.90
2022-08-19T16:04:04.901Z,26.33
2022-08-19T16:06:42.819Z,22.60
2022-08-19T16:09:09.623Z,26.10
2022-08-19T16:11:45.621Z,22.33
2022-08-19T16:14:15.411Z,21.93
2022-08-19T16:16:46.729Z,21.87
2022-08-19T16:19:19.333Z,21.57
2022-08-19T16:21:52.813Z,25.10
2022-08-19T16:24:26.253Z,24.87
2022-08-19T16:26:53.657Z,22.07
2022-08-19T16:29:34.549Z,23.53
2022-08-19T16:32:10.952Z,23.47
2022-08-19T16:34:44.954Z,26.20
2022-08-19T16:37:18.108Z,27.43
2022-08-19T16:39:45.041Z,25.80
2022-08-19T16:42:12.680Z,28.93
2022-08-19T16:44:47.542Z,28.50
2022-08-19T16:47:16.924Z,22.80
2022-08-19T16:49:53.051Z,26.30
2022-08-19T16:52:22.292Z,25.47
2022-08-19T16:54:52.814Z,26.27
2022-08-19T16:57:19.640Z,25.33
2022-08-19T16:59:48.960Z,27.67
2022-08-19T17:02:22.733Z,25.87
2022-08-19T17:04:58.602Z,27.47
2022-08-19T17:07:33.059Z,24.20
2022-08-19T17:10:02.622Z,29.00
2022-08-19T17:12:32.049Z,25.90
2022-08-19T17:15:00.770Z,28.47
2022-08-19T17:17:30.667Z,26.97
2022-08-19T17:19:59.323Z,28.27
2022-08-19T17:22:26.783Z,26.67
2022-08-19T17:24:57.952Z,25.03
2022-08-19T17:27:26.725Z,24.93
2022-08-19T17:30:00.362Z,24.07
2022-08-19T17:32:27.394Z,24.87
2022-08-19T17:34:54.449Z,23.63
2022-08-19T17:37:24.889Z,19.20
2022-08-19T17:39:51.849Z,21.90
2022-08-19T17:42:19.353Z,20.27
2022-08-19T17:44:50.353Z,19.47
2022-08-19T17:47:18.361Z,18.07
2022-08-19T17:49:45.580Z,18.47
2022-08-19T17:52:12.905Z,16.50
2022-08-19T17:54:39.689Z,17.63
2022-08-19T17:57:09.829Z,20.83
2022-08-19T17:59:47.441Z,21.93
2022-08-19T18:02:15.858Z,22.33
2022-08-19T18:04:48.895Z,20.60
2022-08-19T18:07:21.384Z,22.17
2022-08-19T18:09:52.928Z,17.53
2022-08-19T18:12:26.712Z,19.03
2022-08-19T18:14:53.840Z,18.60
2022-08-19T18:17:23.219Z,17.30
2022-08-19T18:19:50.442Z,16.50
2022-08-19T18:22:23.358Z,16.33
2022-08-19T18:24:50.191Z,15.53
2022-08-19T18:27:17.193Z,18.50
2022-08-19T18:29:44.855Z,16.63
2022-08-19T18:32:23.723Z,16.73
2022-08-19T18:34:53.592Z,15.40
2022-08-19T18:37:24.006Z,16.93
2022-08-19T18:40:09.803Z,17.50
2022-08-19T18:42:55.755Z,18.00
2022-08-19T18:45:43.555Z,16.77
2022-08-19T18:48:35.553Z,17.00
2022-08-19T18:51:06.167Z,15.23
2022-08-19T18:53:35.978Z,16.03
2022-08-19T18:56:02.842Z,16.70
2022-08-19T18:58:35.175Z,15.83
2022-08-19T19:01:30.918Z,16.00
2022-08-19T19:04:06.697Z,17.03
2022-08-19T19:06:40.518Z,16.20
2022-08-19T19:09:16.742Z,17.40
2022-08-19T19:11:46.901Z,17.97
2022-08-19T19:14:45.572Z,14.53
2022-08-19T19:17:14.207Z,15.33
2022-08-19T19:19:44.412Z,16.90
2022-08-19T19:22:14.575Z,15.53
2022-08-19T19:24:45.713Z,16.13
2022-08-19T19:27:15.107Z,16.23
2022-08-19T19:29:42.754Z,14.33
2022-08-19T19:32:19.321Z,15.60
2022-08-19T19:34:49.876Z,14.37
2022-08-19T19:37:20.369Z,12.13
2022-08-19T19:39:48.261Z,11.47
2022-08-19T19:42:21.556Z,11.30
2022-08-19T19:44:54.824Z,11.73
2022-08-19T19:47:25.730Z,10.30
2022-08-19T19:52:41.001Z,9.67
2022-08-19T19:55:09.509Z,9.30
2022-08-19T19:57:37.909Z,7.93
2022-08-19T20:00:09.108Z,7.87
2022-08-19T20:02:36.015Z,8.23
2022-08-19T20:05:05.511Z,8.83
2022-08-19T20:07:51.490Z,7.70
2022-08-19T20:10:18.326Z,8.37
2022-08-19T20:12:45.060Z,7.87
2022-08-19T20:15:19.552Z,7.40
2022-08-19T20:17:46.593Z,8.80
2022-08-19T20:20:19.388Z,8.93
2022-08-19T20:22:47.614Z,7.53
2022-08-19T20:25:17.224Z,8.40
2022-08-19T20:27:44.788Z,7.17
2022-08-19T20:30:24.371Z,7.53
2022-08-19T20:32:52.371Z,7.27
2022-08-19T20:35:21.163Z,7.03
2022-08-19T20:37:48.282Z,6.80
2022-08-19T20:40:22.074Z,6.40
2022-08-19T20:42:50.571Z,7.50
2022-08-19T20:45:33.666Z,6.53
2022-08-19T20:48:03.457Z,7.37
2022-08-19T20:50:32.802Z,7.90
2022-08-19T20:53:14.606Z,6.47
2022-08-19T20:55:44.951Z,7.10
2022-08-19T20:58:16.061Z,5.80
2022-08-19T21:00:45.721Z,6.13
2022-08-19T21:03:19.460Z,5.50
2022-08-19T21:05:49.892Z,6.17
2022-08-19T21:08:18.267Z,6.30
2022-08-19T21:10:50.051Z,5.73
2022-08-19T21:13:18.620Z,5.40
2022-08-19T21:15:45.977Z,5.73
2022-08-19T21:18:15.519Z,4.83
2022-08-19T21:20:43.262Z,6.33
2022-08-19T21:23:19.911Z,5.53
2022-08-19T21:25:55.356Z,4.63
2022-08-19T21:28:34.425Z,5.47
2022-08-19T21:31:06.782Z,3.73
2022-08-19T21:33:34.321Z,3.87
2022-08-19T21:36:01.692Z,3.77
2022-08-19T21:38:31.161Z,4.40
2022-08-19T21:40:57.914Z,5.83
2022-08-19T21:43:25.364Z,3.57
2022-08-19T21:45:52.132Z,4.00
2022-08-19T21:48:19.502Z,6.80
2022-08-19T21:50:48.387Z,3.43
2022-08-19T21:53:18.854Z,4.20
2022-08-19T21:55:53.154Z,4.10
2022-08-19T21:58:30.282Z,6.60
2022-08-19T22:00:59.389Z,4.17
2022-08-19T22:03:27.686Z,4.73
2022-08-19T22:05:54.441Z,4.70
2022-08-19T22:08:21.621Z,6.33
2022-08-19T22:10:49.793Z,19.57
2022-08-19T22:13:22.896Z,9.37
2022-08-19T22:15:51.903Z,5.37
2022-08-19T22:18:19.387Z,4.17
2022-08-19T22:20:46.161Z,3.87
2022-08-19T22:23:16.467Z,4.40
2022-08-19T22:25:47.765Z,4.63
2022-08-19T22:28:18.978Z,4.20
2022-08-19T22:31:01.740Z,3.50
2022-08-19T22:33:32.323Z,4.03
2022-08-19T22:36:02.141Z,4.07
2022-08-19T22:38:29.035Z,3.50
2022-08-19T22:40:58.879Z,3.53
2022-08-19T22:43:31.023Z,3.47
2022-08-19T22:45:59.116Z,3.97
2022-08-19T22:48:29.407Z,3.70
2022-08-19T22:51:21.616Z,3.43
2022-08-19T22:53:48.547Z,3.57
2022-08-19T22:56:18.665Z,4.27
2022-08-19T22:58:47.607Z,3.70
2022-08-19T23:01:29.830Z,3.43
2022-08-19T23:03:59.548Z,6.20
2022-08-19T23:06:33.976Z,9.40
2022-08-19T23:09:04.535Z,3.90
2022-08-19T23:11:34.674Z,4.93
2022-08-19T23:14:04.143Z,4.53
2022-08-19T23:16:35.704Z,5.13
2022-08-19T23:19:03.067Z,4.40
2022-08-19T23:21:33.671Z,3.90
2022-08-19T23:24:00.477Z,4.30
2022-08-19T23:26:33.875Z,4.50
2022-08-19T23:29:20.951Z,4.80
2022-08-19T23:31:50.509Z,5.20
2022-08-19T23:34:18.071Z,4.33
2022-08-19T23:36:44.853Z,4.53
2022-08-19T23:39:15.170Z,4.87
2022-08-19T23:41:41.899Z,5.20
2022-08-19T23:44:16.278Z,4.63
2022-08-19T23:46:54.595Z,4.73
2022-08-19T23:49:24.029Z,4.80
2022-08-19T23:51:56.016Z,5.13
2022-08-19T23:54:34.384Z,4.50
2022-08-19T23:57:13.433Z,6.33
2022-08-19T23:59:42.661Z,8.23
